createdAt,value
2022-10-22T00:02:20.851Z,14.64
2022-10-22T00:04:52.078Z,14.62
2022-10-22T00:07:24.119Z,14.61
2022-10-22T00:09:54.627Z,14.60
2022-10-22T00:12:25.198Z,14.60
2022-10-22T00:14:55.622Z,14.59
2022-10-22T00:17:26.066Z,14.58
2022-10-22T00:19:56.892Z,14.58
2022-10-22T00:22:27.338Z,14.59
2022-10-22T00:24:57.704Z,14.59
2022-10-22T00:27:28.049Z,14.61
2022-10-22T00:29:58.448Z,14.61
2022-10-22T00:32:28.793Z,14.61
2022-10-22T00:34:59.176Z,14.61
2022-10-22T00:37:30.353Z,14.60
2022-10-22T00:40:00.752Z,14.60
2022-10-22T00:42:31.278Z,14.59
2022-10-22T00:45:05.984Z,14.56
2022-10-22T00:47:40.581Z,14.54
2022-10-22T00:50:16.946Z,14.55
2022-10-22T00:52:47.813Z,14.56
2022-10-22T00:55:18.763Z,14.55
2022-10-22T00:57:49.786Z,14.54
2022-10-22T01:00:20.499Z,14.53
2022-10-22T01:02:53.266Z,14.52
2022-10-22T01:05:23.888Z,14.51
2022-10-22T01:07:55.718Z,14.50
2022-10-22T01:10:40.084Z,14.50
2022-10-22T01:13:23.897Z,14.49
2022-10-22T01:16:01.734Z,14.48
2022-10-22T01:18:40.793Z,14.46
2022-10-22T01:21:24.095Z,14.44
2022-10-22T01:24:17.940Z,14.43
2022-10-22T01:27:01.736Z,14.41
2022-10-22T01:29:35.066Z,14.40
2022-10-22T01:32:11.559Z,14.38
2022-10-22T01:34:45.101Z,14.37
2022-10-22T01:37:19.282Z,14.36
2022-10-22T01:39:50.819Z,14.36
2022-10-22T01:42:21.551Z,14.33
2022-10-22T01:44:51.994Z,14.32
2022-10-22T01:47:41.034Z,14.31
2022-10-22T01:50:34.396Z,14.30
2022-10-22T01:53:21.828Z,14.29
2022-10-22T01:56:05.469Z,14.28
2022-10-22T01:58:43.151Z,14.27
2022-10-22T02:01:22.916Z,14.25
2022-10-22T02:04:11.692Z,14.23
2022-10-22T02:06:44.639Z,14.22
2022-10-22T02:09:18.713Z,14.20
2022-10-22T02:11:50.745Z,14.19
2022-10-22T02:14:22.225Z,14.17
2022-10-22T02:16:53.572Z,14.15
2022-10-22T02:19:25.812Z,14.14
2022-10-22T02:21:56.434Z,14.11
2022-10-22T02:24:27.639Z,14.09
2022-10-22T02:27:06.899Z,14.07
2022-10-22T02:29:42.545Z,14.04
2022-10-22T02:32:17.820Z,14.01
2022-10-22T02:34:50.127Z,13.98
2022-10-22T02:37:21.858Z,13.95
2022-10-22T02:39:54.551Z,13.93
2022-10-22T02:42:27.189Z,13.92
2022-10-22T02:44:57.489Z,13.90
2022-10-22T02:47:28.192Z,13.89
2022-10-22T02:49:58.615Z,13.87
2022-10-22T02:52:29.054Z,13.84
2022-10-22T02:55:02.629Z,13.81
2022-10-22T02:57:33.327Z,13.79
2022-10-22T03:00:04.037Z,13.78
2022-10-22T03:02:34.578Z,13.75
2022-10-22T03:05:05.719Z,13.74
2022-10-22T03:07:36.121Z,13.75
2022-10-22T03:10:07.709Z,13.75
2022-10-22T03:12:38.218Z,13.74
2022-10-22T03:15:09.723Z,13.75
2022-10-22T03:17:40.400Z,13.75
2022-10-22T03:20:12.019Z,13.75
2022-10-22T03:22:41.916Z,13.77
2022-10-22T03:25:17.575Z,13.76
2022-10-22T03:27:48.917Z,13.74
2022-10-22T03:30:18.025Z,13.74
2022-10-22T03:32:48.612Z,13.73
2022-10-22T03:35:19.205Z,13.73
2022-10-22T03:37:50.122Z,13.71
2022-10-22T03:40:21.422Z,13.70
2022-10-22T03:42:50.382Z,13.68
2022-10-22T03:45:20.889Z,13.65
2022-10-22T03:47:51.306Z,13.62
2022-10-22T03:50:21.834Z,13.60
2022-10-22T03:52:53.276Z,13.57
2022-10-22T03:55:23.749Z,13.54
2022-10-22T03:57:54.101Z,13.52
2022-10-22T04:00:24.567Z,13.52
2022-10-22T04:02:54.890Z,13.51
2022-10-22T04:05:25.308Z,13.48
2022-10-22T04:07:55.742Z,13.44
2022-10-22T04:10:26.084Z,13.40
2022-10-22T04:12:56.549Z,13.38
2022-10-22T04:15:29.008Z,13.37
2022-10-22T04:17:59.470Z,13.37
2022-10-22T04:20:29.990Z,13.36
2022-10-22T04:23:00.297Z,13.36
2022-10-22T04:25:30.765Z,13.36
2022-10-22T04:28:01.114Z,13.35
2022-10-22T04:30:31.878Z,13.32
2022-10-22T04:33:02.657Z,13.29
2022-10-22T04:35:33.495Z,13.27
2022-10-22T04:38:04.046Z,13.24
2022-10-22T04:40:34.392Z,13.22
2022-10-22T04:43:04.973Z,13.20
2022-10-22T04:45:36.909Z,13.18
2022-10-22T04:48:08.089Z,13.14
2022-10-22T04:50:38.684Z,13.12
2022-10-22T04:53:13.135Z,13.10
2022-10-22T04:55:43.484Z,13.10
2022-10-22T04:58:13.892Z,13.09
2022-10-22T05:00:44.441Z,13.09
2022-10-22T05:03:14.817Z,13.09
2022-10-22T05:05:45.244Z,13.10
2022-10-22T05:08:15.684Z,13.12
2022-10-22T05:10:46.140Z,13.12
2022-10-22T05:13:16.577Z,13.12
2022-10-22T05:15:47.049Z,13.13
2022-10-22T05:18:19.072Z,13.14
2022-10-22T05:20:53.318Z,13.13
2022-10-22T05:23:23.765Z,13.13
2022-10-22T05:25:54.232Z,13.12
2022-10-22T05:28:24.752Z,13.11
2022-10-22T05:31:00.271Z,13.11
2022-10-22T05:33:31.680Z,13.09
2022-10-22T05:36:03.335Z,13.10
2022-10-22T05:38:34.290Z,13.11
2022-10-22T05:41:07.059Z,13.11
2022-10-22T05:43:38.238Z,13.11
2022-10-22T05:46:22.268Z,13.10
2022-10-22T05:48:55.148Z,13.09
2022-10-22T05:51:26.010Z,13.06
2022-10-22T05:53:59.213Z,13.06
2022-10-22T05:56:31.879Z,13.07
2022-10-22T06:01:37.937Z,13.10
2022-10-22T06:04:12.201Z,13.12
2022-10-22T06:06:48.340Z,13.12
2022-10-22T06:09:22.294Z,13.14
2022-10-22T06:12:02.790Z,13.16
2022-10-22T06:14:46.931Z,13.18
2022-10-22T06:17:17.249Z,13.23
2022-10-22T06:19:47.572Z,13.25
2022-10-22T06:22:18.023Z,13.28
2022-10-22T06:24:48.322Z,13.29
2022-10-22T06:27:18.690Z,13.30
2022-10-22T06:29:53.232Z,13.34
2022-10-22T06:32:23.862Z,13.36
2022-10-22T06:34:54.258Z,13.39
2022-10-22T06:37:24.542Z,13.42
2022-10-22T06:39:54.882Z,13.45
2022-10-22T06:42:25.669Z,13.47
2022-10-22T06:44:56.396Z,13.50
2022-10-22T06:47:26.854Z,13.53
2022-10-22T06:49:57.394Z,13.56
2022-10-22T06:52:27.846Z,13.58
2022-10-22T06:54:58.220Z,13.63
2022-10-22T06:57:29.110Z,13.67
2022-10-22T06:59:59.443Z,13.68
2022-10-22T07:02:29.717Z,13.69
2022-10-22T07:04:59.987Z,13.71
2022-10-22T07:07:30.552Z,13.70
2022-10-22T07:10:00.930Z,13.68
2022-10-22T07:12:31.223Z,13.68
2022-10-22T07:15:01.600Z,13.66
2022-10-22T07:17:32.174Z,13.66
2022-10-22T07:20:02.575Z,13.67
2022-10-22T07:22:34.437Z,13.68
2022-10-22T07:25:07.451Z,13.69
2022-10-22T07:27:38.211Z,13.72
2022-10-22T07:30:11.268Z,13.75
2022-10-22T07:32:41.705Z,13.78
2022-10-22T07:35:12.494Z,13.80
2022-10-22T07:37:43.252Z,13.84
2022-10-22T07:40:14.431Z,13.88
2022-10-22T07:42:45.077Z,13.91
2022-10-22T07:45:15.718Z,13.93
2022-10-22T07:47:47.879Z,13.93
2022-10-22T07:50:19.221Z,13.91
2022-10-22T07:52:48.059Z,13.90
2022-10-22T07:55:18.687Z,13.88
2022-10-22T07:57:48.976Z,13.88
2022-10-22T08:00:23.156Z,13.88
2022-10-22T08:02:55.639Z,13.87
2022-10-22T08:05:26.021Z,13.89
2022-10-22T08:07:56.268Z,13.89
2022-10-22T08:10:26.575Z,13.90
2022-10-22T08:12:57.076Z,13.92
2022-10-22T08:15:27.455Z,13.94
2022-10-22T08:18:00.709Z,13.96
2022-10-22T08:24:19.459Z,14.06
2022-10-22T08:26:49.820Z,14.09
2022-10-22T08:29:21.602Z,14.15
2022-10-22T08:31:52.341Z,14.25
2022-10-22T08:34:23.235Z,14.35
2022-10-22T08:36:53.463Z,14.47
2022-10-22T08:39:23.874Z,14.60
2022-10-22T08:42:05.927Z,14.71
2022-10-22T08:44:53.821Z,14.79
2022-10-22T08:47:44.878Z,14.87
2022-10-22T08:50:20.264Z,14.96
2022-10-22T08:52:58.336Z,15.04
2022-10-22T08:55:31.749Z,15.10
2022-10-22T08:58:17.636Z,15.15
2022-10-22T09:00:53.393Z,15.19
2022-10-22T09:03:37.040Z,15.26
2022-10-22T09:06:14.533Z,15.31
2022-10-22T09:08:47.131Z,15.36
2022-10-22T09:11:25.207Z,15.41
2022-10-22T09:13:57.440Z,15.48
2022-10-22T09:16:36.270Z,15.52
2022-10-22T09:19:16.836Z,15.56
2022-10-22T09:21:55.343Z,15.58
2022-10-22T09:24:35.047Z,15.62
2022-10-22T09:27:14.786Z,15.68
2022-10-22T09:29:47.086Z,15.76
2022-10-22T09:32:18.451Z,15.82
2022-10-22T09:34:47.998Z,15.93
2022-10-22T09:37:25.917Z,15.96
2022-10-22T09:39:58.888Z,15.99
2022-10-22T09:42:35.544Z,16.03
2022-10-22T09:45:07.070Z,16.09
2022-10-22T09:48:00.927Z,16.18
2022-10-22T09:50:39.569Z,16.23
2022-10-22T09:53:18.933Z,16.28
2022-10-22T09:55:53.800Z,16.35
2022-10-22T09:58:24.250Z,16.41
2022-10-22T10:00:58.288Z,16.42
2022-10-22T10:03:32.101Z,16.47
2022-10-22T10:06:06.010Z,16.51
2022-10-22T10:08:36.841Z,16.55
2022-10-22T10:11:15.555Z,16.61
2022-10-22T10:13:54.712Z,16.70
2022-10-22T10:16:39.654Z,16.81
2022-10-22T10:19:31.557Z,16.91
2022-10-22T10:22:13.238Z,17.00
2022-10-22T10:25:00.227Z,17.09
2022-10-22T10:27:37.570Z,17.16
2022-10-22T10:30:16.717Z,17.15
2022-10-22T10:33:10.399Z,17.14
2022-10-22T10:35:52.347Z,17.12
2022-10-22T10:38:39.459Z,17.15
2022-10-22T10:41:20.350Z,17.21
2022-10-22T10:44:06.569Z,17.28
2022-10-22T10:46:49.406Z,17.37
2022-10-22T10:49:25.221Z,17.48
2022-10-22T10:52:05.769Z,17.61
2022-10-22T10:54:47.644Z,17.68
2022-10-22T10:57:34.129Z,17.74
2022-10-22T11:00:10.918Z,17.86
2022-10-22T11:03:15.713Z,18.00
2022-10-22T11:05:49.609Z,18.18
2022-10-22T11:08:26.824Z,18.34
2022-10-22T11:11:01.469Z,18.47
2022-10-22T11:13:35.793Z,18.51
2022-10-22T11:16:13.211Z,18.53
2022-10-22T11:18:49.206Z,18.50
2022-10-22T11:21:28.205Z,18.47
2022-10-22T11:24:11.520Z,18.49
2022-10-22T11:26:47.701Z,18.56
2022-10-22T11:29:23.532Z,18.63
2022-10-22T11:31:56.800Z,18.74
2022-10-22T11:34:34.451Z,18.88
2022-10-22T11:37:07.486Z,19.03
2022-10-22T11:39:43.241Z,19.18
2022-10-22T11:42:19.706Z,19.30
2022-10-22T11:45:01.473Z,19.38
2022-10-22T11:47:35.221Z,19.38
2022-10-22T11:50:22.793Z,19.40
2022-10-22T11:53:01.418Z,19.40
2022-10-22T11:55:47.954Z,19.51
2022-10-22T11:58:32.944Z,19.62
2022-10-22T12:01:25.891Z,19.72
2022-10-22T12:04:21.897Z,19.89
2022-10-22T12:07:03.004Z,19.95
2022-10-22T12:09:41.357Z,19.98
2022-10-22T12:12:17.192Z,19.95
2022-10-22T12:14:59.572Z,19.97
2022-10-22T12:17:32.143Z,20.06
2022-10-22T12:20:09.340Z,20.16
2022-10-22T12:22:41.057Z,20.37
2022-10-22T12:25:23.678Z,20.55
2022-10-22T12:27:57.203Z,20.91
2022-10-22T12:30:29.014Z,21.02
2022-10-22T12:33:01.270Z,20.99
2022-10-22T12:35:35.552Z,20.79
2022-10-22T12:38:14.257Z,20.68
2022-10-22T12:40:47.692Z,20.58
2022-10-22T12:43:25.011Z,20.49
2022-10-22T12:45:57.657Z,20.45
2022-10-22T12:48:34.277Z,20.42
2022-10-22T12:51:07.994Z,20.46
2022-10-22T12:53:40.821Z,20.47
2022-10-22T12:56:16.361Z,20.43
2022-10-22T12:58:50.304Z,20.42
2022-10-22T13:01:21.189Z,20.46
2022-10-22T13:04:04.843Z,20.52
2022-10-22T13:06:37.031Z,20.60
2022-10-22T13:09:17.537Z,20.55
2022-10-22T13:11:54.881Z,20.49
2022-10-22T13:14:31.029Z,20.49
2022-10-22T13:17:10.186Z,20.60
2022-10-22T13:19:44.781Z,20.72
2022-10-22T13:22:34.111Z,20.92
2022-10-22T13:25:25.110Z,21.06
2022-10-22T13:27:57.833Z,21.22
2022-10-22T13:30:31.237Z,21.32
2022-10-22T13:33:03.337Z,21.26
2022-10-22T13:35:37.409Z,21.14
2022-10-22T13:38:14.461Z,21.01
2022-10-22T13:40:44.917Z,20.80
2022-10-22T13:43:16.880Z,20.65
2022-10-22T13:45:48.938Z,20.49
2022-10-22T13:48:22.033Z,20.33
2022-10-22T13:50:54.081Z,20.19
2022-10-22T13:53:26.725Z,20.03
2022-10-22T13:55:57.218Z,19.87
2022-10-22T13:58:27.566Z,19.72
2022-10-22T14:01:00.822Z,19.63
2022-10-22T14:03:34.463Z,19.55
2022-10-22T14:06:06.576Z,19.50
2022-10-22T14:08:38.255Z,19.45
2022-10-22T14:11:09.813Z,19.38
2022-10-22T14:13:40.703Z,19.33
2022-10-22T14:16:20.132Z,19.30
2022-10-22T14:18:51.423Z,19.28
2022-10-22T14:21:23.708Z,19.27
2022-10-22T14:23:54.534Z,19.24
2022-10-22T14:26:30.163Z,19.23
2022-10-22T14:29:16.208Z,19.25
2022-10-22T14:31:46.859Z,19.29
2022-10-22T14:34:18.493Z,19.31
2022-10-22T14:36:48.800Z,19.34
2022-10-22T14:39:19.431Z,19.35
2022-10-22T14:41:50.045Z,19.37
2022-10-22T14:44:20.313Z,19.35
2022-10-22T14:46:54.304Z,19.34
2022-10-22T14:49:24.739Z,19.35
2022-10-22T14:51:55.050Z,19.31
2022-10-22T14:54:25.308Z,19.28
2022-10-22T14:56:55.691Z,19.28
2022-10-22T14:59:26.101Z,19.32
2022-10-22T15:01:56.434Z,19.39
2022-10-22T15:04:28.276Z,19.49
2022-10-22T15:06:59.187Z,19.57
2022-10-22T15:09:30.135Z,19.62
2022-10-22T15:12:00.583Z,19.63
2022-10-22T15:14:31.049Z,19.64
2022-10-22T15:17:01.726Z,19.63
2022-10-22T15:19:33.320Z,19.61
2022-10-22T15:22:04.273Z,19.53
2022-10-22T15:24:34.632Z,19.47
2022-10-22T15:27:05.041Z,19.41
2022-10-22T15:29:36.232Z,19.34
2022-10-22T15:32:07.017Z,19.25
2022-10-22T15:34:38.614Z,19.17
2022-10-22T15:37:12.194Z,19.10
2022-10-22T15:39:43.444Z,19.01
2022-10-22T15:42:14.674Z,18.90
2022-10-22T15:44:43.647Z,18.79
2022-10-22T15:47:14.126Z,18.69
2022-10-22T15:49:44.626Z,18.55
2022-10-22T15:52:15.793Z,18.37
2022-10-22T15:54:46.298Z,18.15
2022-10-22T15:57:16.747Z,17.94
2022-10-22T15:59:50.098Z,17.73
2022-10-22T16:02:20.420Z,17.54
2022-10-22T16:04:51.018Z,17.37
2022-10-22T16:07:24.649Z,17.18
2022-10-22T16:09:58.513Z,16.99
2022-10-22T16:12:31.062Z,16.81
2022-10-22T16:15:01.500Z,16.66
2022-10-22T16:17:31.885Z,16.51
2022-10-22T16:20:02.405Z,16.33
2022-10-22T16:22:34.191Z,16.18
2022-10-22T16:25:04.809Z,16.04
2022-10-22T16:27:35.338Z,15.95
2022-10-22T16:30:06.787Z,15.86
2022-10-22T16:32:37.305Z,15.77
2022-10-22T16:35:09.338Z,15.67
2022-10-22T16:37:39.920Z,15.60
2022-10-22T16:40:13.193Z,15.52
2022-10-22T16:42:44.453Z,15.44
2022-10-22T16:47:50.168Z,15.28
2022-10-22T16:50:20.834Z,15.22
2022-10-22T16:52:51.763Z,15.16
2022-10-22T16:55:22.211Z,15.11
2022-10-22T16:57:55.442Z,15.05
2022-10-22T17:00:25.907Z,14.97
2022-10-22T17:02:56.454Z,14.91
2022-10-22T17:05:27.001Z,14.85
2022-10-22T17:07:57.332Z,14.79
2022-10-22T17:10:27.799Z,14.74
2022-10-22T17:12:58.280Z,14.68
2022-10-22T17:15:30.435Z,14.63
2022-10-22T17:18:01.696Z,14.57
2022-10-22T17:20:30.550Z,14.53
2022-10-22T17:23:00.913Z,14.48
2022-10-22T17:25:42.550Z,14.43
2022-10-22T17:28:13.654Z,14.38
2022-10-22T17:30:43.960Z,14.33
2022-10-22T17:33:14.404Z,14.29
2022-10-22T17:35:45.285Z,14.27
2022-10-22T17:38:15.598Z,14.23
2022-10-22T17:41:20.306Z,14.18
2022-10-22T17:44:10.460Z,14.12
2022-10-22T17:46:43.910Z,14.07
2022-10-22T17:49:19.475Z,14.02
2022-10-22T17:51:50.409Z,13.98
2022-10-22T17:54:20.999Z,13.95
2022-10-22T17:57:02.727Z,13.92
2022-10-22T17:59:34.075Z,13.90
2022-10-22T18:02:04.641Z,13.88
2022-10-22T18:04:35.596Z,13.85
2022-10-22T18:07:09.352Z,13.82
2022-10-22T18:09:40.093Z,13.80
2022-10-22T18:12:13.691Z,13.76
2022-10-22T18:14:44.338Z,13.74
2022-10-22T18:19:50.483Z,13.66
2022-10-22T18:22:21.059Z,13.63
2022-10-22T18:24:52.969Z,13.62
2022-10-22T18:27:23.560Z,13.60
2022-10-22T18:29:54.111Z,13.57
2022-10-22T18:32:24.814Z,13.54
2022-10-22T18:34:55.282Z,13.50
2022-10-22T18:37:25.749Z,13.46
2022-10-22T18:39:56.144Z,13.41
2022-10-22T18:42:29.188Z,13.37
2022-10-22T18:45:07.491Z,13.34
2022-10-22T18:47:42.185Z,13.30
2022-10-22T18:50:13.722Z,13.26
2022-10-22T18:52:44.405Z,13.22
2022-10-22T18:55:14.825Z,13.20
2022-10-22T18:57:45.076Z,13.17
2022-10-22T19:00:17.284Z,13.15
2022-10-22T19:02:47.561Z,13.11
2022-10-22T19:05:18.024Z,13.08
2022-10-22T19:07:50.179Z,13.04
2022-10-22T19:10:20.778Z,13.02
2022-10-22T19:12:51.955Z,13.00
2022-10-22T19:15:22.417Z,12.98
2022-10-22T19:17:52.877Z,12.96
2022-10-22T19:20:23.177Z,12.97
2022-10-22T19:22:58.186Z,12.95
2022-10-22T19:25:30.131Z,12.95
2022-10-22T19:28:01.567Z,12.94
2022-10-22T19:30:32.088Z,12.95
2022-10-22T19:33:02.623Z,12.95
2022-10-22T19:35:33.839Z,12.94
2022-10-22T19:38:04.211Z,12.92
2022-10-22T19:40:34.599Z,12.92
2022-10-22T19:43:05.018Z,12.92
2022-10-22T19:45:35.490Z,12.93
2022-10-22T19:48:06.315Z,12.93
2022-10-22T19:50:36.728Z,12.94
2022-10-22T19:53:07.210Z,12.95
2022-10-22T19:55:42.878Z,12.96
2022-10-22T19:58:15.115Z,12.97
2022-10-22T20:00:46.287Z,12.98
2022-10-22T20:03:17.122Z,12.99
2022-10-22T20:05:48.613Z,13.00
2022-10-22T20:08:19.565Z,13.00
2022-10-22T20:10:52.224Z,12.98
2022-10-22T20:13:23.127Z,12.96
2022-10-22T20:15:53.682Z,12.94
2022-10-22T20:18:24.150Z,12.94
2022-10-22T20:20:54.584Z,12.92
2022-10-22T20:23:25.046Z,12.92
2022-10-22T20:25:55.552Z,12.91
2022-10-22T20:28:26.145Z,12.89
2022-10-22T20:30:56.531Z,12.88
2022-10-22T20:33:27.095Z,12.85
2022-10-22T20:36:06.013Z,12.83
2022-10-22T20:41:15.707Z,12.79
2022-10-22T20:43:47.764Z,12.76
2022-10-22T20:46:22.830Z,12.74
2022-10-22T20:48:54.701Z,12.72
2022-10-22T20:51:25.422Z,12.74
2022-10-22T20:53:55.800Z,12.74
2022-10-22T20:56:27.748Z,12.73
2022-10-22T20:59:05.127Z,12.73
2022-10-22T21:01:38.051Z,12.75
2022-10-22T21:04:09.837Z,12.74
2022-10-22T21:06:42.829Z,12.74
2022-10-22T21:09:15.372Z,12.74
2022-10-22T21:11:46.097Z,12.74
2022-10-22T21:14:22.112Z,12.75
2022-10-22T21:16:53.177Z,12.77
2022-10-22T21:19:23.930Z,12.79
2022-10-22T21:21:55.070Z,12.78
2022-10-22T21:24:26.407Z,12.82
2022-10-22T21:26:55.246Z,12.83
2022-10-22T21:29:25.689Z,12.84
2022-10-22T21:31:56.308Z,12.85
2022-10-22T21:34:26.969Z,12.85
2022-10-22T21:36:57.428Z,12.86
2022-10-22T21:39:27.977Z,12.88
2022-10-22T21:41:58.935Z,12.88
2022-10-22T21:44:29.412Z,12.89
2022-10-22T21:47:00.012Z,12.91
2022-10-22T21:49:30.692Z,12.92
2022-10-22T21:52:02.722Z,12.93
2022-10-22T21:54:33.335Z,12.95
2022-10-22T21:57:04.159Z,12.95
2022-10-22T21:59:36.099Z,12.94
2022-10-22T22:02:06.648Z,12.93
2022-10-22T22:04:37.199Z,12.94
2022-10-22T22:07:07.926Z,12.92
2022-10-22T22:09:40.734Z,12.91
2022-10-22T22:12:11.274Z,12.92
2022-10-22T22:14:41.919Z,12.91
2022-10-22T22:17:14.217Z,12.92
2022-10-22T22:19:44.671Z,12.96
2022-10-22T22:22:15.195Z,13.01
2022-10-22T22:24:45.696Z,13.03
2022-10-22T22:27:17.734Z,13.05
2022-10-22T22:29:48.280Z,13.07
2022-10-22T22:32:18.766Z,13.10
2022-10-22T22:34:49.423Z,13.10
2022-10-22T22:37:19.959Z,13.08
2022-10-22T22:39:51.350Z,13.05
2022-10-22T22:42:21.871Z,13.02
2022-10-22T22:44:52.371Z,13.03
2022-10-22T22:47:22.895Z,13.03
2022-10-22T22:49:53.333Z,13.01
2022-10-22T22:52:27.223Z,13.00
2022-10-22T22:54:57.661Z,13.00
2022-10-22T22:57:29.252Z,13.00
2022-10-22T22:59:59.634Z,13.02
2022-10-22T23:02:30.054Z,13.04
2022-10-22T23:05:00.541Z,13.06
2022-10-22T23:07:31.016Z,13.07
2022-10-22T23:10:02.207Z,13.06
2022-10-22T23:12:32.656Z,13.03
2022-10-22T23:15:03.838Z,13.00
2022-10-22T23:20:11.700Z,12.99
2022-10-22T23:22:42.428Z,13.00
2022-10-22T23:25:13.227Z,13.00
2022-10-22T23:27:44.136Z,13.02
2022-10-22T23:30:15.812Z,13.03
2022-10-22T23:32:46.321Z,13.02
2022-10-22T23:35:16.921Z,13.03
2022-10-22T23:37:47.414Z,13.03
2022-10-22T23:40:18.332Z,13.02
2022-10-22T23:42:48.763Z,13.00
2022-10-22T23:45:19.241Z,12.98
2022-10-22T23:47:49.605Z,12.96
2022-10-22T23:50:20.166Z,12.92
2022-10-22T23:52:51.932Z,12.88
2022-10-22T23:55:22.447Z,12.85
2022-10-22T23:57:53.110Z,12.79
